Electra, TX (76360)

9:08 AM CST on December 27, 2014 (GMT -0600)
Electra | Change Station
CLOSE
Current Station
Personal Weather Station
Location: Electra, TX
Elevation: 1227 ft
Nearby Weather Stations

Elev 1227 ft 34.03 °N, 98.91 °W | Updated 3 seconds ago

Snow
Snow
30.6 °F
Feels Like 23 °F
N
8.1
Wind Variable Wind from NW
Gusts 13.0 mph

Today
High -- | Low -- °F
--% Chance of Precip.
Yesterday
High -- | Low -- °F
Precip. -- in
7:39 AM 5:33 PM
Waxing Crescent, 37% visible
Pressure 30.33 in
Visibility 10.0 miles
Clouds Overcast 8000 ft
Windchill 23 °F
Dew Point 30 °F
Humidity 96%
Rainfall 0.00 in
Snow Depth Not available.
UV 0 out of 12
Pollen 9.00 out of 12
Air Quality Not available.
Flu Activity Not available.
METAR KF05 271455Z AUTO 36009KT 10SM OVC080 00/M03 A3033 RMK AO1 60001 T00041027

More Conditions Fewer Conditions

Pressure 30.33 in
Visibility 10.0 miles
Clouds Overcast 8000 ft
Windchill 23 °F
Dew Point 30 °F
Humidity 96%
Rainfall 0.00 in
Snow Depth Not available.
UV 0 out of 12
Pollen 9.00 out of 12
Air Quality Not available.
Flu Activity Not available.
METAR KF05 271455Z AUTO 36009KT 10SM OVC080 00/M03 A3033 RMK AO1 60001 T00041027

More Conditions Fewer Conditions

10-Day Weather Forecast

Almanac

Astronomy

Dec. 27, 2014 Rise Set
Actual Time
Civil Twilight
Nautical Twilight
Astronomical Twilight
Moon
Length of Visible Light
Length of Day
Tomorrow will be .
, % of the Moon is Illuminated

Today's Extremes

State Highs State Lows

Community

WunderPhotos

Upload Photos

1,780,923 photos uploaded!

WunderBlogs® & News

Nearby

Air Quality

  Air Quality AQ Index Pollutant
Not available.

Snow Depth

Station Depth Elevation

Earthquake Activity

City Distance Mag. Time & Date
Minimum magnitude displayed is 2.5.

Coastal Water Temperatures

Place Temperature

Nearby Weather Stations